sensor_id;sensor_type;location;lat;lon;timestamp;temperature;humidity
20862;DHT22;10591;52.532;13.348;2022-12-10T00:02:08;-0.85;85.95
20862;DHT22;10591;52.532;13.348;2022-12-10T00:04:41;-0.90;85.59
20862;DHT22;10591;52.532;13.348;2022-12-10T00:07:13;-1.08;85.76
20862;DHT22;10591;52.532;13.348;2022-12-10T00:09:44;-1.04;85.67
20862;DHT22;10591;52.532;13.348;2022-12-10T00:12:14;-1.03;85.71
20862;DHT22;10591;52.532;13.348;2022-12-10T00:14:44;-1.08;85.81
20862;DHT22;10591;52.532;13.348;2022-12-10T00:17:16;-1.10;86.06
20862;DHT22;10591;52.532;13.348;2022-12-10T00:19:47;-1.22;86.08
20862;DHT22;10591;52.532;13.348;2022-12-10T00:22:17;-1.12;86.07
20862;DHT22;10591;52.532;13.348;2022-12-10T00:24:48;-1.14;86.27
20862;DHT22;10591;52.532;13.348;2022-12-10T00:27:18;-1.12;86.23
20862;DHT22;10591;52.532;13.348;2022-12-10T00:29:49;-1.19;86.38
20862;DHT22;10591;52.532;13.348;2022-12-10T00:32:20;-1.38;86.74
20862;DHT22;10591;52.532;13.348;2022-12-10T00:34:52;-1.26;86.62
20862;DHT22;10591;52.532;13.348;2022-12-10T00:37:23;-1.32;86.76
20862;DHT22;10591;52.532;13.348;2022-12-10T00:39:54;-1.44;86.62
20862;DHT22;10591;52.532;13.348;2022-12-10T00:42:24;-1.28;87.04
20862;DHT22;10591;52.532;13.348;2022-12-10T00:44:57;-1.40;87.05
20862;DHT22;10591;52.532;13.348;2022-12-10T00:47:28;-1.34;86.96
20862;DHT22;10591;52.532;13.348;2022-12-10T00:49:58;-1.36;87.04
20862;DHT22;10591;52.532;13.348;2022-12-10T00:52:31;-1.24;87.18
20862;DHT22;10591;52.532;13.348;2022-12-10T00:55:02;-1.42;86.96
20862;DHT22;10591;52.532;13.348;2022-12-10T00:57:32;-1.46;86.87
20862;DHT22;10591;52.532;13.348;2022-12-10T01:00:04;-1.48;86.90
20862;DHT22;10591;52.532;13.348;2022-12-10T01:02:36;-1.50;87.01
20862;DHT22;10591;52.532;13.348;2022-12-10T01:05:07;-1.56;86.98
20862;DHT22;10591;52.532;13.348;2022-12-10T01:07:38;-1.47;86.99
20862;DHT22;10591;52.532;13.348;2022-12-10T01:10:08;-1.53;87.10
20862;DHT22;10591;52.532;13.348;2022-12-10T01:12:40;-1.57;87.23
20862;DHT22;10591;52.532;13.348;2022-12-10T01:15:11;-1.58;87.43
20862;DHT22;10591;52.532;13.348;2022-12-10T01:17:42;-1.52;87.32
20862;DHT22;10591;52.532;13.348;2022-12-10T01:20:12;-1.58;87.38
20862;DHT22;10591;52.532;13.348;2022-12-10T01:22:43;-1.75;87.56
20862;DHT22;10591;52.532;13.348;2022-12-10T01:25:13;-1.74;87.56
20862;DHT22;10591;52.532;13.348;2022-12-10T01:27:44;-1.76;87.62
20862;DHT22;10591;52.532;13.348;2022-12-10T01:30:21;-1.78;87.55
20862;DHT22;10591;52.532;13.348;2022-12-10T01:32:53;-1.86;87.57
20862;DHT22;10591;52.532;13.348;2022-12-10T01:35:28;-1.82;87.70
20862;DHT22;10591;52.532;13.348;2022-12-10T01:37:59;-1.78;87.76
20862;DHT22;10591;52.532;13.348;2022-12-10T01:40:36;-1.76;87.91
20862;DHT22;10591;52.532;13.348;2022-12-10T01:43:05;-1.82;87.79
20862;DHT22;10591;52.532;13.348;2022-12-10T01:45:35;-1.92;87.89
20862;DHT22;10591;52.532;13.348;2022-12-10T01:48:07;-1.92;88.06
20862;DHT22;10591;52.532;13.348;2022-12-10T01:50:39;-1.86;88.43
20862;DHT22;10591;52.532;13.348;2022-12-10T01:53:12;-2.06;88.48
20862;DHT22;10591;52.532;13.348;2022-12-10T01:55:49;-1.92;88.51
20862;DHT22;10591;52.532;13.348;2022-12-10T01:58:20;-2.00;88.41
20862;DHT22;10591;52.532;13.348;2022-12-10T02:09:26;-1.98;88.62
20862;DHT22;10591;52.532;13.348;2022-12-10T02:17:19;-2.22;88.77
20862;DHT22;10591;52.532;13.348;2022-12-10T02:20:17;-2.04;88.81
20862;DHT22;10591;52.532;13.348;2022-12-10T02:22:56;-2.04;88.86
20862;DHT22;10591;52.532;13.348;2022-12-10T02:28:21;-2.12;88.80
20862;DHT22;10591;52.532;13.348;2022-12-10T02:30:50;-2.10;88.80
20862;DHT22;10591;52.532;13.348;2022-12-10T02:33:25;-1.96;88.88
20862;DHT22;10591;52.532;13.348;2022-12-10T02:35:57;-1.96;88.80
20862;DHT22;10591;52.532;13.348;2022-12-10T02:38:32;-1.92;88.83
20862;DHT22;10591;52.532;13.348;2022-12-10T02:41:06;-2.02;89.06
20862;DHT22;10591;52.532;13.348;2022-12-10T02:43:37;-1.97;88.96
20862;DHT22;10591;52.532;13.348;2022-12-10T02:46:08;-2.00;88.66
20862;DHT22;10591;52.532;13.348;2022-12-10T02:48:40;-1.91;88.77
20862;DHT22;10591;52.532;13.348;2022-12-10T02:51:11;-2.08;88.53
20862;DHT22;10591;52.532;13.348;2022-12-10T02:53:43;-2.00;88.51
20862;DHT22;10591;52.532;13.348;2022-12-10T02:56:36;-1.94;88.60
20862;DHT22;10591;52.532;13.348;2022-12-10T02:59:16;-1.96;88.54
20862;DHT22;10591;52.532;13.348;2022-12-10T03:02:10;-2.02;88.61
20862;DHT22;10591;52.532;13.348;2022-12-10T03:04:48;-2.08;88.64
20862;DHT22;10591;52.532;13.348;2022-12-10T03:07:24;-2.04;88.65
20862;DHT22;10591;52.532;13.348;2022-12-10T03:10:03;-1.89;88.81
20862;DHT22;10591;52.532;13.348;2022-12-10T03:12:38;-1.86;88.74
20862;DHT22;10591;52.532;13.348;2022-12-10T03:15:05;-1.91;88.64
20862;DHT22;10591;52.532;13.348;2022-12-10T03:17:39;-1.86;88.70
20862;DHT22;10591;52.532;13.348;2022-12-10T03:20:13;-1.82;88.67
20862;DHT22;10591;52.532;13.348;2022-12-10T03:22:46;-1.84;88.58
20862;DHT22;10591;52.532;13.348;2022-12-10T03:25:23;-1.85;88.50
20862;DHT22;10591;52.532;13.348;2022-12-10T03:27:54;-1.84;88.32
20862;DHT22;10591;52.532;13.348;2022-12-10T03:30:25;-1.71;88.20
20862;DHT22;10591;52.532;13.348;2022-12-10T03:32:57;-1.78;88.28
20862;DHT22;10591;52.532;13.348;2022-12-10T03:35:28;-1.70;88.07
20862;DHT22;10591;52.532;13.348;2022-12-10T03:37:59;-1.62;88.34
20862;DHT22;10591;52.532;13.348;2022-12-10T03:40:30;-1.79;88.17
20862;DHT22;10591;52.532;13.348;2022-12-10T03:43:01;-1.79;88.30
20862;DHT22;10591;52.532;13.348;2022-12-10T03:45:33;-1.84;88.10
20862;DHT22;10591;52.532;13.348;2022-12-10T03:48:06;-1.75;88.31
20862;DHT22;10591;52.532;13.348;2022-12-10T03:50:36;-1.78;88.26
20862;DHT22;10591;52.532;13.348;2022-12-10T03:53:07;-1.70;88.22
20862;DHT22;10591;52.532;13.348;2022-12-10T03:55:39;-1.74;88.31
20862;DHT22;10591;52.532;13.348;2022-12-10T03:58:09;-1.66;87.96
20862;DHT22;10591;52.532;13.348;2022-12-10T04:00:43;-1.69;87.95
20862;DHT22;10591;52.532;13.348;2022-12-10T04:03:14;-1.62;87.97
20862;DHT22;10591;52.532;13.348;2022-12-10T04:05:46;-1.64;87.84
20862;DHT22;10591;52.532;13.348;2022-12-10T04:08:18;-1.70;87.74
20862;DHT22;10591;52.532;13.348;2022-12-10T04:10:52;-1.68;87.66
20862;DHT22;10591;52.532;13.348;2022-12-10T04:13:24;-1.56;87.61
20862;DHT22;10591;52.532;13.348;2022-12-10T04:16:15;-1.57;87.39
20862;DHT22;10591;52.532;13.348;2022-12-10T04:19:06;-1.44;87.29
20862;DHT22;10591;52.532;13.348;2022-12-10T04:21:38;-1.42;87.04
20862;DHT22;10591;52.532;13.348;2022-12-10T04:24:30;-1.21;86.93
20862;DHT22;10591;52.532;13.348;2022-12-10T04:29:59;-1.30;86.72
20862;DHT22;10591;52.532;13.348;2022-12-10T04:32:30;-1.22;86.71
20862;DHT22;10591;52.532;13.348;2022-12-10T04:35:00;-1.30;86.44
20862;DHT22;10591;52.532;13.348;2022-12-10T04:37:36;-1.21;86.55
20862;DHT22;10591;52.532;13.348;2022-12-10T04:40:06;-1.22;86.29
20862;DHT22;10591;52.532;13.348;2022-12-10T04:42:37;-1.14;86.16
20862;DHT22;10591;52.532;13.348;2022-12-10T04:45:08;-1.08;86.20
20862;DHT22;10591;52.532;13.348;2022-12-10T04:47:39;-1.14;86.18
20862;DHT22;10591;52.532;13.348;2022-12-10T04:50:09;-1.13;85.75
20862;DHT22;10591;52.532;13.348;2022-12-10T04:52:42;-1.14;85.79
20862;DHT22;10591;52.532;13.348;2022-12-10T04:55:12;-1.12;85.21
20862;DHT22;10591;52.532;13.348;2022-12-10T04:57:44;-0.97;85.36
20862;DHT22;10591;52.532;13.348;2022-12-10T05:00:16;-1.08;85.20
20862;DHT22;10591;52.532;13.348;2022-12-10T05:02:48;-0.97;85.33
20862;DHT22;10591;52.532;13.348;2022-12-10T05:05:19;-0.90;84.83
20862;DHT22;10591;52.532;13.348;2022-12-10T05:07:50;-0.88;84.55
20862;DHT22;10591;52.532;13.348;2022-12-10T05:10:21;-0.82;84.39
20862;DHT22;10591;52.532;13.348;2022-12-10T05:12:51;-0.81;83.99
20862;DHT22;10591;52.532;13.348;2022-12-10T05:15:22;-0.80;84.22
20862;DHT22;10591;52.532;13.348;2022-12-10T05:17:52;-0.96;84.20
20862;DHT22;10591;52.532;13.348;2022-12-10T05:20:23;-0.83;84.32
20862;DHT22;10591;52.532;13.348;2022-12-10T05:22:54;-0.78;84.26
20862;DHT22;10591;52.532;13.348;2022-12-10T05:25:42;-0.88;84.48
20862;DHT22;10591;52.532;13.348;2022-12-10T05:28:15;-0.72;83.68
20862;DHT22;10591;52.532;13.348;2022-12-10T05:30:48;-0.80;83.51
20862;DHT22;10591;52.532;13.348;2022-12-10T05:33:19;-0.80;83.29
20862;DHT22;10591;52.532;13.348;2022-12-10T05:35:54;-0.78;82.97
20862;DHT22;10591;52.532;13.348;2022-12-10T05:38:31;-0.68;82.28
20862;DHT22;10591;52.532;13.348;2022-12-10T05:41:04;-0.72;82.48
20862;DHT22;10591;52.532;13.348;2022-12-10T05:43:37;-0.72;82.41
20862;DHT22;10591;52.532;13.348;2022-12-10T05:46:10;-0.78;82.24
20862;DHT22;10591;52.532;13.348;2022-12-10T05:48:41;-0.78;82.62
20862;DHT22;10591;52.532;13.348;2022-12-10T05:51:14;-0.78;82.19
20862;DHT22;10591;52.532;13.348;2022-12-10T05:53:46;-0.88;82.49
20862;DHT22;10591;52.532;13.348;2022-12-10T05:56:19;-0.72;82.72
20862;DHT22;10591;52.532;13.348;2022-12-10T05:58:51;-0.68;82.03
20862;DHT22;10591;52.532;13.348;2022-12-10T06:01:25;-0.74;82.00
20862;DHT22;10591;52.532;13.348;2022-12-10T06:03:58;-0.74;81.61
20862;DHT22;10591;52.532;13.348;2022-12-10T06:06:36;-0.62;81.73
20862;DHT22;10591;52.532;13.348;2022-12-10T06:09:03;-0.58;81.37
20862;DHT22;10591;52.532;13.348;2022-12-10T06:11:34;-0.64;82.02
20862;DHT22;10591;52.532;13.348;2022-12-10T06:14:04;-0.68;81.95
20862;DHT22;10591;52.532;13.348;2022-12-10T06:16:35;-0.82;82.09
20862;DHT22;10591;52.532;13.348;2022-12-10T06:19:05;-0.82;82.09
20862;DHT22;10591;52.532;13.348;2022-12-10T06:21:36;-0.68;81.56
20862;DHT22;10591;52.532;13.348;2022-12-10T06:24:07;-0.68;81.15
20862;DHT22;10591;52.532;13.348;2022-12-10T06:26:37;-0.73;81.32
20862;DHT22;10591;52.532;13.348;2022-12-10T06:29:09;-0.64;81.02
20862;DHT22;10591;52.532;13.348;2022-12-10T06:31:39;-0.74;81.14
20862;DHT22;10591;52.532;13.348;2022-12-10T06:34:10;-0.82;81.23
20862;DHT22;10591;52.532;13.348;2022-12-10T06:36:41;-0.84;80.97
20862;DHT22;10591;52.532;13.348;2022-12-10T06:39:11;-0.80;81.00
20862;DHT22;10591;52.532;13.348;2022-12-10T06:41:42;-0.88;81.28
20862;DHT22;10591;52.532;13.348;2022-12-10T06:44:13;-0.79;81.28
20862;DHT22;10591;52.532;13.348;2022-12-10T06:46:44;-0.76;81.40
20862;DHT22;10591;52.532;13.348;2022-12-10T06:49:15;-0.82;81.66
20862;DHT22;10591;52.532;13.348;2022-12-10T06:51:47;-0.83;81.29
20862;DHT22;10591;52.532;13.348;2022-12-10T06:54:18;-0.88;81.44
20862;DHT22;10591;52.532;13.348;2022-12-10T06:56:51;-0.86;81.15
20862;DHT22;10591;52.532;13.348;2022-12-10T06:59:22;-0.92;80.79
20862;DHT22;10591;52.532;13.348;2022-12-10T07:01:54;-1.00;81.05
20862;DHT22;10591;52.532;13.348;2022-12-10T07:04:25;-0.90;81.03
20862;DHT22;10591;52.532;13.348;2022-12-10T07:06:56;-0.88;80.96
20862;DHT22;10591;52.532;13.348;2022-12-10T07:09:26;-0.96;81.17
20862;DHT22;10591;52.532;13.348;2022-12-10T07:11:57;-0.88;81.37
20862;DHT22;10591;52.532;13.348;2022-12-10T07:14:27;-0.86;80.67
20862;DHT22;10591;52.532;13.348;2022-12-10T07:16:58;-1.03;81.11
20862;DHT22;10591;52.532;13.348;2022-12-10T07:19:31;-1.00;81.21
20862;DHT22;10591;52.532;13.348;2022-12-10T07:22:01;-1.06;81.60
20862;DHT22;10591;52.532;13.348;2022-12-10T07:24:32;-0.94;81.25
20862;DHT22;10591;52.532;13.348;2022-12-10T07:27:05;-0.88;80.92
20862;DHT22;10591;52.532;13.348;2022-12-10T07:29:35;-0.98;81.31
20862;DHT22;10591;52.532;13.348;2022-12-10T07:32:07;-0.82;81.09
20862;DHT22;10591;52.532;13.348;2022-12-10T07:34:37;-0.88;81.33
20862;DHT22;10591;52.532;13.348;2022-12-10T07:37:09;-0.82;80.32
20862;DHT22;10591;52.532;13.348;2022-12-10T07:39:40;-0.86;80.60
20862;DHT22;10591;52.532;13.348;2022-12-10T07:42:12;-0.97;80.32
20862;DHT22;10591;52.532;13.348;2022-12-10T07:44:44;-0.82;80.56
20862;DHT22;10591;52.532;13.348;2022-12-10T07:47:16;-0.80;80.62
20862;DHT22;10591;52.532;13.348;2022-12-10T07:49:47;-0.78;80.34
20862;DHT22;10591;52.532;13.348;2022-12-10T07:52:18;-0.84;80.35
20862;DHT22;10591;52.532;13.348;2022-12-10T07:54:53;-0.80;80.67
20862;DHT22;10591;52.532;13.348;2022-12-10T07:57:27;-0.74;80.33
20862;DHT22;10591;52.532;13.348;2022-12-10T07:59:59;-0.74;80.54
20862;DHT22;10591;52.532;13.348;2022-12-10T08:02:29;-0.82;80.61
20862;DHT22;10591;52.532;13.348;2022-12-10T08:05:00;-0.59;80.36
20862;DHT22;10591;52.532;13.348;2022-12-10T08:07:31;-0.78;80.60
20862;DHT22;10591;52.532;13.348;2022-12-10T08:10:03;-0.80;80.54
20862;DHT22;10591;52.532;13.348;2022-12-10T08:12:33;-0.67;80.74
20862;DHT22;10591;52.532;13.348;2022-12-10T08:15:04;-0.78;80.59
20862;DHT22;10591;52.532;13.348;2022-12-10T08:17:35;-0.71;80.22
20862;DHT22;10591;52.532;13.348;2022-12-10T08:20:06;-0.70;80.90
20862;DHT22;10591;52.532;13.348;2022-12-10T08:22:38;-0.68;80.45
20862;DHT22;10591;52.532;13.348;2022-12-10T08:25:08;-0.66;80.26
20862;DHT22;10591;52.532;13.348;2022-12-10T08:27:39;-0.53;80.03
20862;DHT22;10591;52.532;13.348;2022-12-10T08:30:12;-0.52;80.47
20862;DHT22;10591;52.532;13.348;2022-12-10T08:32:43;-0.64;80.57
20862;DHT22;10591;52.532;13.348;2022-12-10T08:35:13;-0.48;80.07
20862;DHT22;10591;52.532;13.348;2022-12-10T08:37:44;-0.57;80.32
20862;DHT22;10591;52.532;13.348;2022-12-10T08:40:15;-0.52;79.89
20862;DHT22;10591;52.532;13.348;2022-12-10T08:42:47;-0.42;80.01
20862;DHT22;10591;52.532;13.348;2022-12-10T08:45:19;-0.50;79.94
20862;DHT22;10591;52.532;13.348;2022-12-10T08:47:50;-0.33;80.17
20862;DHT22;10591;52.532;13.348;2022-12-10T08:50:21;-0.38;80.25
20862;DHT22;10591;52.532;13.348;2022-12-10T08:52:52;-0.32;79.62
20862;DHT22;10591;52.532;13.348;2022-12-10T08:55:23;-0.19;79.11
20862;DHT22;10591;52.532;13.348;2022-12-10T08:57:53;-0.32;79.17
20862;DHT22;10591;52.532;13.348;2022-12-10T09:00:25;-0.22;78.80
20862;DHT22;10591;52.532;13.348;2022-12-10T09:02:56;-0.18;78.67
20862;DHT22;10591;52.532;13.348;2022-12-10T09:05:27;-0.31;79.23
20862;DHT22;10591;52.532;13.348;2022-12-10T09:07:58;-0.37;78.74
20862;DHT22;10591;52.532;13.348;2022-12-10T09:10:30;-0.32;79.29
20862;DHT22;10591;52.532;13.348;2022-12-10T09:13:00;-0.20;79.13
20862;DHT22;10591;52.532;13.348;2022-12-10T09:15:32;-0.21;79.27
20862;DHT22;10591;52.532;13.348;2022-12-10T09:18:07;0.07;78.83
20862;DHT22;10591;52.532;13.348;2022-12-10T09:20:38;-0.01;78.49
20862;DHT22;10591;52.532;13.348;2022-12-10T09:23:09;-0.03;78.19
20862;DHT22;10591;52.532;13.348;2022-12-10T09:25:40;-0.15;79.42
20862;DHT22;10591;52.532;13.348;2022-12-10T09:28:10;0.24;78.83
20862;DHT22;10591;52.532;13.348;2022-12-10T09:30:50;0.11;78.79
20862;DHT22;10591;52.532;13.348;2022-12-10T09:33:17;0.05;78.43
20862;DHT22;10591;52.532;13.348;2022-12-10T09:35:47;0.14;78.65
20862;DHT22;10591;52.532;13.348;2022-12-10T09:38:18;0.08;78.49
20862;DHT22;10591;52.532;13.348;2022-12-10T09:41:02;0.07;78.81
20862;DHT22;10591;52.532;13.348;2022-12-10T09:46:40;0.18;78.42
20862;DHT22;10591;52.532;13.348;2022-12-10T09:49:05;0.26;78.19
20862;DHT22;10591;52.532;13.348;2022-12-10T09:51:37;0.35;78.17
20862;DHT22;10591;52.532;13.348;2022-12-10T09:56:53;0.49;77.52
20862;DHT22;10591;52.532;13.348;2022-12-10T09:59:42;0.31;77.87
20862;DHT22;10591;52.532;13.348;2022-12-10T10:02:24;0.40;78.70
20862;DHT22;10591;52.532;13.348;2022-12-10T10:05:00;0.36;77.96
20862;DHT22;10591;52.532;13.348;2022-12-10T10:07:33;0.33;78.03
20862;DHT22;10591;52.532;13.348;2022-12-10T10:10:07;0.39;78.47
20862;DHT22;10591;52.532;13.348;2022-12-10T10:12:40;0.42;78.11
20862;DHT22;10591;52.532;13.348;2022-12-10T10:15:15;0.33;78.64
20862;DHT22;10591;52.532;13.348;2022-12-10T10:17:45;0.40;78.68
20862;DHT22;10591;52.532;13.348;2022-12-10T10:20:18;0.45;78.75
20862;DHT22;10591;52.532;13.348;2022-12-10T10:22:50;0.60;78.04
20862;DHT22;10591;52.532;13.348;2022-12-10T10:25:22;0.55;78.02
20862;DHT22;10591;52.532;13.348;2022-12-10T10:27:53;0.42;78.02
20862;DHT22;10591;52.532;13.348;2022-12-10T10:30:24;0.20;78.43
20862;DHT22;10591;52.532;13.348;2022-12-10T10:32:56;0.22;79.31
20862;DHT22;10591;52.532;13.348;2022-12-10T10:35:32;0.22;79.23
20862;DHT22;10591;52.532;13.348;2022-12-10T10:38:06;0.35;78.99
20862;DHT22;10591;52.532;13.348;2022-12-10T10:40:43;0.35;78.78
20862;DHT22;10591;52.532;13.348;2022-12-10T10:43:30;0.40;78.87
20862;DHT22;10591;52.532;13.348;2022-12-10T10:46:05;0.42;78.33
20862;DHT22;10591;52.532;13.348;2022-12-10T10:48:36;0.36;78.62
20862;DHT22;10591;52.532;13.348;2022-12-10T10:53:50;0.27;79.04
20862;DHT22;10591;52.532;13.348;2022-12-10T10:56:37;0.24;79.70
20862;DHT22;10591;52.532;13.348;2022-12-10T11:01:52;0.39;78.96
20862;DHT22;10591;52.532;13.348;2022-12-10T11:04:38;0.29;79.48
20862;DHT22;10591;52.532;13.348;2022-12-10T11:07:22;0.22;79.13
20862;DHT22;10591;52.532;13.348;2022-12-10T11:09:53;0.41;79.64
20862;DHT22;10591;52.532;13.348;2022-12-10T11:12:34;0.19;79.66
20862;DHT22;10591;52.532;13.348;2022-12-10T11:15:24;0.16;79.84
20862;DHT22;10591;52.532;13.348;2022-12-10T11:17:34;0.16;79.68
20862;DHT22;10591;52.532;13.348;2022-12-10T11:20:22;0.10;79.89
20862;DHT22;10591;52.532;13.348;2022-12-10T11:22:56;0.20;79.38
20862;DHT22;10591;52.532;13.348;2022-12-10T11:25:49;0.22;79.92
20862;DHT22;10591;52.532;13.348;2022-12-10T11:36:44;0.30;79.66
20862;DHT22;10591;52.532;13.348;2022-12-10T11:39:38;0.46;79.64
20862;DHT22;10591;52.532;13.348;2022-12-10T11:42:21;0.40;79.45
20862;DHT22;10591;52.532;13.348;2022-12-10T11:45:01;0.48;79.47
20862;DHT22;10591;52.532;13.348;2022-12-10T11:47:40;0.58;79.38
20862;DHT22;10591;52.532;13.348;2022-12-10T11:50:32;0.52;79.29
20862;DHT22;10591;52.532;13.348;2022-12-10T12:02:11;0.40;79.73
20862;DHT22;10591;52.532;13.348;2022-12-10T12:04:52;0.43;79.22
20862;DHT22;10591;52.532;13.348;2022-12-10T12:07:41;0.00;80.04
20862;DHT22;10591;52.532;13.348;2022-12-10T12:16:00;-0.16;80.69
20862;DHT22;10591;52.532;13.348;2022-12-10T12:21:27;0.01;80.25
20862;DHT22;10591;52.532;13.348;2022-12-10T12:24:20;0.08;80.82
20862;DHT22;10591;52.532;13.348;2022-12-10T12:27:02;-0.02;80.57
20862;DHT22;10591;52.532;13.348;2022-12-10T12:29:41;0.08;80.82
20862;DHT22;10591;52.532;13.348;2022-12-10T12:32:29;0.02;80.81
20862;DHT22;10591;52.532;13.348;2022-12-10T12:35:04;0.16;80.70
20862;DHT22;10591;52.532;13.348;2022-12-10T12:37:41;0.02;80.90
20862;DHT22;10591;52.532;13.348;2022-12-10T12:40:28;0.14;80.88
20862;DHT22;10591;52.532;13.348;2022-12-10T12:43:13;0.17;80.61
20862;DHT22;10591;52.532;13.348;2022-12-10T12:45:49;0.22;80.51
20862;DHT22;10591;52.532;13.348;2022-12-10T12:48:29;0.16;80.46
20862;DHT22;10591;52.532;13.348;2022-12-10T12:51:11;-0.12;80.57
20862;DHT22;10591;52.532;13.348;2022-12-10T12:53:42;-0.03;80.75
20862;DHT22;10591;52.532;13.348;2022-12-10T12:56:53;-0.24;81.06
20862;DHT22;10591;52.532;13.348;2022-12-10T13:02:15;-0.16;80.99
20862;DHT22;10591;52.532;13.348;2022-12-10T13:04:40;-0.36;81.26
20862;DHT22;10591;52.532;13.348;2022-12-10T13:10:10;-0.36;81.40
20862;DHT22;10591;52.532;13.348;2022-12-10T13:12:50;-0.36;81.26
20862;DHT22;10591;52.532;13.348;2022-12-10T13:15:32;-0.34;81.21
20862;DHT22;10591;52.532;13.348;2022-12-10T13:23:47;-0.39;81.12
20862;DHT22;10591;52.532;13.348;2022-12-10T13:26:26;-0.30;81.37
20862;DHT22;10591;52.532;13.348;2022-12-10T13:29:22;-0.21;81.21
20862;DHT22;10591;52.532;13.348;2022-12-10T13:32:00;-0.36;81.40
20862;DHT22;10591;52.532;13.348;2022-12-10T13:34:31;-0.21;81.08
20862;DHT22;10591;52.532;13.348;2022-12-10T13:37:06;-0.12;81.03
20862;DHT22;10591;52.532;13.348;2022-12-10T13:42:43;-0.13;81.37
20862;DHT22;10591;52.532;13.348;2022-12-10T13:45:33;-0.13;81.35
20862;DHT22;10591;52.532;13.348;2022-12-10T13:48:26;-0.11;81.28
20862;DHT22;10591;52.532;13.348;2022-12-10T13:51:22;-0.30;81.28
20862;DHT22;10591;52.532;13.348;2022-12-10T13:56:35;-0.36;81.29
20862;DHT22;10591;52.532;13.348;2022-12-10T13:59:16;-0.41;81.48
20862;DHT22;10591;52.532;13.348;2022-12-10T14:04:44;-0.44;81.63
20862;DHT22;10591;52.532;13.348;2022-12-10T14:07:15;-0.44;82.16
20862;DHT22;10591;52.532;13.348;2022-12-10T14:09:55;-0.44;81.91
20862;DHT22;10591;52.532;13.348;2022-12-10T14:12:33;-0.29;81.67
20862;DHT22;10591;52.532;13.348;2022-12-10T14:15:07;-0.33;81.66
20862;DHT22;10591;52.532;13.348;2022-12-10T14:17:40;-0.30;81.76
20862;DHT22;10591;52.532;13.348;2022-12-10T14:20:22;-0.27;82.20
20862;DHT22;10591;52.532;13.348;2022-12-10T14:22:50;-0.34;82.00
20862;DHT22;10591;52.532;13.348;2022-12-10T14:25:22;-0.33;81.20
20862;DHT22;10591;52.532;13.348;2022-12-10T14:27:54;-0.32;81.28
20862;DHT22;10591;52.532;13.348;2022-12-10T14:30:25;-0.46;81.49
20862;DHT22;10591;52.532;13.348;2022-12-10T14:33:02;-0.48;81.56
20862;DHT22;10591;52.532;13.348;2022-12-10T14:35:33;-0.33;81.37
20862;DHT22;10591;52.532;13.348;2022-12-10T14:38:04;-0.27;81.40
20862;DHT22;10591;52.532;13.348;2022-12-10T14:40:41;-0.42;81.39
20862;DHT22;10591;52.532;13.348;2022-12-10T14:43:16;-0.36;81.22
20862;DHT22;10591;52.532;13.348;2022-12-10T14:45:52;-0.53;81.64
20862;DHT22;10591;52.532;13.348;2022-12-10T14:48:26;-0.46;81.99
20862;DHT22;10591;52.532;13.348;2022-12-10T14:51:12;-0.47;82.35
20862;DHT22;10591;52.532;13.348;2022-12-10T14:53:42;-0.52;81.87
20862;DHT22;10591;52.532;13.348;2022-12-10T14:56:22;-0.55;82.22
20862;DHT22;10591;52.532;13.348;2022-12-10T14:58:57;-0.50;81.96
20862;DHT22;10591;52.532;13.348;2022-12-10T15:01:37;-0.50;82.09
20862;DHT22;10591;52.532;13.348;2022-12-10T15:04:16;-0.40;82.17
20862;DHT22;10591;52.532;13.348;2022-12-10T15:06:48;-0.40;82.03
20862;DHT22;10591;52.532;13.348;2022-12-10T15:09:25;-0.50;81.94
20862;DHT22;10591;52.532;13.348;2022-12-10T15:12:00;-0.48;82.17
20862;DHT22;10591;52.532;13.348;2022-12-10T15:14:33;-0.55;82.07
20862;DHT22;10591;52.532;13.348;2022-12-10T15:17:31;-0.42;82.30
20862;DHT22;10591;52.532;13.348;2022-12-10T15:19:40;-0.48;82.06
20862;DHT22;10591;52.532;13.348;2022-12-10T15:22:20;-0.32;82.44
20862;DHT22;10591;52.532;13.348;2022-12-10T15:24:52;-0.28;82.42
20862;DHT22;10591;52.532;13.348;2022-12-10T15:27:29;-0.32;82.05
20862;DHT22;10591;52.532;13.348;2022-12-10T15:30:00;-0.30;82.01
20862;DHT22;10591;52.532;13.348;2022-12-10T15:32:32;-0.28;81.46
20862;DHT22;10591;52.532;13.348;2022-12-10T15:35:05;-0.31;81.53
20862;DHT22;10591;52.532;13.348;2022-12-10T15:37:47;-0.26;81.66
20862;DHT22;10591;52.532;13.348;2022-12-10T15:40:29;-0.36;81.86
20862;DHT22;10591;52.532;13.348;2022-12-10T15:43:27;-0.46;81.83
20862;DHT22;10591;52.532;13.348;2022-12-10T15:45:59;-0.36;81.85
20862;DHT22;10591;52.532;13.348;2022-12-10T15:48:33;-0.34;81.93
20862;DHT22;10591;52.532;13.348;2022-12-10T15:51:04;-0.34;81.77
20862;DHT22;10591;52.532;13.348;2022-12-10T15:53:38;-0.52;81.73
20862;DHT22;10591;52.532;13.348;2022-12-10T15:56:09;-0.40;81.94
20862;DHT22;10591;52.532;13.348;2022-12-10T15:58:40;-0.47;81.92
20862;DHT22;10591;52.532;13.348;2022-12-10T16:01:13;-0.48;82.37
20862;DHT22;10591;52.532;13.348;2022-12-10T16:03:50;-0.34;82.68
20862;DHT22;10591;52.532;13.348;2022-12-10T16:06:24;-0.48;81.92
20862;DHT22;10591;52.532;13.348;2022-12-10T16:08:55;-0.60;82.53
20862;DHT22;10591;52.532;13.348;2022-12-10T16:11:25;-0.65;82.79
20862;DHT22;10591;52.532;13.348;2022-12-10T16:13:59;-0.54;82.90
20862;DHT22;10591;52.532;13.348;2022-12-10T16:16:33;-0.51;82.71
20862;DHT22;10591;52.532;13.348;2022-12-10T16:19:11;-0.42;82.59
20862;DHT22;10591;52.532;13.348;2022-12-10T16:21:43;-0.50;82.32
20862;DHT22;10591;52.532;13.348;2022-12-10T16:24:15;-0.50;82.82
20862;DHT22;10591;52.532;13.348;2022-12-10T16:26:47;-0.32;82.80
20862;DHT22;10591;52.532;13.348;2022-12-10T16:29:19;-0.34;82.41
20862;DHT22;10591;52.532;13.348;2022-12-10T16:31:52;-0.36;82.29
20862;DHT22;10591;52.532;13.348;2022-12-10T16:34:24;-0.21;82.39
20862;DHT22;10591;52.532;13.348;2022-12-10T16:36:56;-0.25;81.75
20862;DHT22;10591;52.532;13.348;2022-12-10T16:39:32;-0.38;81.96
20862;DHT22;10591;52.532;13.348;2022-12-10T16:42:03;-0.17;81.75
20862;DHT22;10591;52.532;13.348;2022-12-10T16:44:33;-0.46;82.29
20862;DHT22;10591;52.532;13.348;2022-12-10T16:47:10;-0.42;82.95
20862;DHT22;10591;52.532;13.348;2022-12-10T16:49:42;-0.35;82.15
20862;DHT22;10591;52.532;13.348;2022-12-10T16:52:15;-0.40;82.26
20862;DHT22;10591;52.532;13.348;2022-12-10T16:54:46;-0.34;82.41
20862;DHT22;10591;52.532;13.348;2022-12-10T16:57:24;-0.43;82.68
20862;DHT22;10591;52.532;13.348;2022-12-10T16:59:57;-0.36;82.40
20862;DHT22;10591;52.532;13.348;2022-12-10T17:02:30;-0.40;82.66
20862;DHT22;10591;52.532;13.348;2022-12-10T17:05:02;-0.42;82.93
20862;DHT22;10591;52.532;13.348;2022-12-10T17:07:36;-0.34;82.59
20862;DHT22;10591;52.532;13.348;2022-12-10T17:10:08;-0.30;82.49
20862;DHT22;10591;52.532;13.348;2022-12-10T17:12:39;-0.40;82.62
20862;DHT22;10591;52.532;13.348;2022-12-10T17:15:12;-0.28;82.78
20862;DHT22;10591;52.532;13.348;2022-12-10T17:17:46;-0.42;83.02